Time;durP1;ratioP1;P1;durP2;ratioP2;P2;SDS_P1;SDS_P2;PMS_P1;PMS_P2;Temp;Humidity;BMP_temperature;BMP_pressure;BME280_temperature;BME280_humidity;BME280_pressure;Samples;Min_cycle;Max_cycle;Signal;HPM_P1;HPM_P2
2023/12/02 00:01:42;;;;;;;37.78;12.65;;;;;;;-2.01;100.00;101002.25;5202611;28;20065;-71
2023/12/02 00:04:12;;;;;;;46.40;15.90;;;;;;;-1.98;100.00;100999.47;5221628;28;20052;-71
2023/12/02 00:06:43;;;;;;;42.00;13.20;;;;;;;-1.93;100.00;100990.41;5208362;28;20431;-72
2023/12/02 00:09:13;;;;;;;41.47;14.13;;;;;;;-1.80;100.00;101001.13;5214394;28;20351;-72
2023/12/02 00:11:49;;;;;;;46.85;14.43;;;;;;;-1.72;100.00;101004.16;5215396;28;20045;-72
2023/12/02 00:14:19;;;;;;;47.90;14.38;;;;;;;-1.68;100.00;100994.31;5219351;28;20017;-72
2023/12/02 00:16:49;;;;;;;46.33;14.10;;;;;;;-1.65;100.00;101000.28;5214251;28;20495;-72
2023/12/02 00:19:20;;;;;;;52.47;15.68;;;;;;;-1.58;100.00;101003.41;5218422;28;20025;-72
2023/12/02 00:21:51;;;;;;;56.78;17.80;;;;;;;-1.51;100.00;101012.66;5210424;28;20020;-72
2023/12/02 00:24:21;;;;;;;49.65;17.83;;;;;;;-1.46;100.00;100999.25;5216943;28;20055;-71
2023/12/02 00:26:52;;;;;;;58.08;16.55;;;;;;;-1.42;100.00;101001.63;5217966;28;20021;-72
2023/12/02 00:29:22;;;;;;;49.47;15.13;;;;;;;-1.37;100.00;101009.25;5213550;28;20048;-72
2023/12/02 00:31:53;;;;;;;48.92;15.60;;;;;;;-1.32;100.00;101000.16;5216505;28;20021;-72
2023/12/02 00:34:24;;;;;;;48.58;14.40;;;;;;;-1.28;100.00;100995.59;5219776;28;20036;-72
2023/12/02 00:36:54;;;;;;;51.53;15.48;;;;;;;-1.24;100.00;101007.63;5208054;28;20452;-72
2023/12/02 00:39:25;;;;;;;50.22;16.90;;;;;;;-1.22;100.00;100999.66;5216813;28;20029;-72
2023/12/02 00:41:55;;;;;;;41.92;14.77;;;;;;;-1.18;100.00;101002.03;5207175;28;20019;-72
2023/12/02 00:44:26;;;;;;;52.13;15.68;;;;;;;-1.15;100.00;101006.28;5215143;28;20017;-72
2023/12/02 00:46:56;;;;;;;52.15;16.00;;;;;;;-1.10;100.00;101009.50;5221849;28;20363;-72
2023/12/02 00:49:27;;;;;;;49.97;15.80;;;;;;;-1.10;100.00;101004.22;5210159;28;20026;-71
2023/12/02 00:51:57;;;;;;;49.13;14.80;;;;;;;-1.07;100.00;101004.88;5215501;28;20039;-72
2023/12/02 00:54:28;;;;;;;46.40;14.35;;;;;;;-1.05;100.00;101003.03;5209967;28;20025;-72
2023/12/02 00:56:58;;;;;;;46.30;14.70;;;;;;;-1.03;100.00;101002.94;5208118;28;20029;-72
2023/12/02 00:59:29;;;;;;;48.40;15.50;;;;;;;-1.04;100.00;101009.13;5208520;28;20079;-72
2023/12/02 01:01:59;;;;;;;51.55;16.88;;;;;;;-1.04;100.00;101011.78;5209697;28;20021;-72
2023/12/02 01:04:30;;;;;;;46.65;15.07;;;;;;;-1.10;100.00;101014.75;5211450;28;20027;-72
2023/12/02 01:07:00;;;;;;;46.97;16.52;;;;;;;-1.15;100.00;101009.75;5205494;28;20520;-71
2023/12/02 01:09:31;;;;;;;45.42;13.70;;;;;;;-1.14;100.00;101011.44;5201306;28;20025;-72
2023/12/02 01:12:01;;;;;;;43.50;14.98;;;;;;;-1.18;100.00;101009.06;5205849;28;20605;-72
2023/12/02 01:14:32;;;;;;;48.83;15.15;;;;;;;-1.16;100.00;101012.47;5204864;28;20038;-72
2023/12/02 01:17:02;;;;;;;43.38;15.25;;;;;;;-1.16;100.00;101015.09;5208790;28;20649;-72
2023/12/02 01:19:33;;;;;;;47.28;15.00;;;;;;;-1.15;100.00;101014.19;5201560;28;20083;-71
2023/12/02 01:22:03;;;;;;;45.83;14.18;;;;;;;-1.16;100.00;101018.56;5206391;28;20023;-71
2023/12/02 01:24:34;;;;;;;43.45;15.10;;;;;;;-1.18;100.00;101009.91;5204614;28;20442;-71
2023/12/02 01:27:05;;;;;;;59.22;14.48;;;;;;;-1.20;100.00;101027.59;5217690;28;20066;-71
2023/12/02 01:29:35;;;;;;;48.25;15.90;;;;;;;-1.18;100.00;101016.97;5203805;28;20033;-71
2023/12/02 01:32:06;;;;;;;40.50;15.43;;;;;;;-1.16;100.00;101028.25;5201726;28;20426;-71
2023/12/02 01:34:37;;;;;;;47.15;15.38;;;;;;;-1.18;100.00;101033.63;5201781;28;20029;-71
2023/12/02 01:37:07;;;;;;;46.13;15.02;;;;;;;-1.19;100.00;101025.81;5202251;28;20017;-71
2023/12/02 01:39:38;;;;;;;49.35;15.52;;;;;;;-1.17;100.00;101029.19;5205514;28;20475;-71
2023/12/02 01:42:08;;;;;;;45.33;14.68;;;;;;;-1.15;100.00;101033.47;5212962;28;20444;-71
2023/12/02 01:44:39;;;;;;;44.65;14.90;;;;;;;-1.12;100.00;101032.41;5201878;28;20029;-71
2023/12/02 01:47:10;;;;;;;44.70;15.50;;;;;;;-1.16;100.00;101029.09;5213764;28;20051;-71
2023/12/02 01:49:44;;;;;;;42.80;14.63;;;;;;;-1.15;100.00;101036.09;5202473;28;20149;-71
2023/12/02 01:52:14;;;;;;;48.13;16.05;;;;;;;-1.14;100.00;101039.56;5210609;28;20087;-71
2023/12/02 01:54:45;;;;;;;47.65;14.98;;;;;;;-1.14;100.00;101042.19;5201484;28;20033;-71
2023/12/02 01:57:15;;;;;;;46.80;15.63;;;;;;;-1.18;100.00;101046.78;5203823;28;20076;-71
2023/12/02 01:59:53;;;;;;;44.40;15.88;;;;;;;-1.18;100.00;101044.16;5193575;28;20021;-71
2023/12/02 02:02:25;;;;;;;44.63;15.38;;;;;;;-1.18;100.00;101040.66;5207255;28;20021;-72
2023/12/02 02:04:56;;;;;;;50.85;15.35;;;;;;;-1.20;100.00;101048.66;5209051;28;20079;-71
2023/12/02 02:07:30;;;;;;;49.83;16.02;;;;;;;-1.20;100.00;101032.88;5217141;28;20024;-71
2023/12/02 02:10:01;;;;;;;53.40;16.23;;;;;;;-1.21;100.00;101046.94;5204068;28;20013;-71
2023/12/02 02:12:32;;;;;;;51.70;16.55;;;;;;;-1.25;100.00;101045.44;5194416;28;20060;-71
2023/12/02 02:15:03;;;;;;;49.88;15.55;;;;;;;-1.21;100.00;101040.81;5206382;28;20057;-71
2023/12/02 02:17:33;;;;;;;45.90;15.52;;;;;;;-1.23;100.00;101050.59;5202703;28;20099;-71
2023/12/02 02:20:05;;;;;;;53.15;16.23;;;;;;;-1.21;100.00;101049.56;5204641;28;20016;-71
2023/12/02 02:22:35;;;;;;;47.42;14.93;;;;;;;-1.15;100.00;101051.03;5201980;28;20029;-71
2023/12/02 02:25:06;;;;;;;47.28;14.65;;;;;;;-1.16;100.00;101058.06;5202653;28;20577;-71
2023/12/02 02:27:57;;;;;;;45.97;14.75;;;;;;;-1.12;100.00;101058.75;5207232;28;20182;-71
2023/12/02 02:30:27;;;;;;;46.30;14.73;;;;;;;-1.16;100.00;101057.22;5195578;28;20021;-71
2023/12/02 02:32:59;;;;;;;48.33;15.57;;;;;;;-1.20;100.00;101058.34;5211899;28;20022;-71
2023/12/02 02:35:32;;;;;;;43.28;14.73;;;;;;;-1.21;100.00;101059.25;5207401;28;20631;-71
2023/12/02 02:38:03;;;;;;;48.08;14.88;;;;;;;-1.20;100.00;101050.44;5202404;28;20388;-72
2023/12/02 02:40:34;;;;;;;48.25;14.80;;;;;;;-1.21;100.00;101060.09;5211989;28;20029;-71
2023/12/02 02:43:04;;;;;;;50.33;15.63;;;;;;;-1.22;100.00;101065.47;5206594;28;20050;-71
2023/12/02 02:45:35;;;;;;;45.50;16.10;;;;;;;-1.23;100.00;101063.78;5204868;28;20638;-71
2023/12/02 02:48:05;;;;;;;43.85;15.27;;;;;;;-1.27;100.00;101060.44;5209640;28;20510;-72
2023/12/02 02:50:36;;;;;;;44.45;15.82;;;;;;;-1.24;100.00;101062.94;5202609;28;20530;-71
2023/12/02 02:53:06;;;;;;;43.40;15.68;;;;;;;-1.27;100.00;101076.25;5210732;28;20392;-72
2023/12/02 02:55:37;;;;;;;45.22;14.85;;;;;;;-1.27;100.00;101064.88;5220604;28;20385;-71
2023/12/02 02:58:08;;;;;;;43.65;15.32;;;;;;;-1.27;100.00;101080.66;5202050;28;20026;-72
2023/12/02 03:00:38;;;;;;;52.47;14.43;;;;;;;-1.28;100.00;101077.19;5205655;28;20048;-72
2023/12/02 03:03:09;;;;;;;46.90;16.63;;;;;;;-1.31;100.00;101075.59;5208288;28;20377;-71
2023/12/02 03:05:39;;;;;;;45.97;14.68;;;;;;;-1.29;100.00;101077.28;5205813;28;20392;-72
2023/12/02 03:08:10;;;;;;;47.28;16.20;;;;;;;-1.32;100.00;101078.28;5202146;28;20024;-72
2023/12/02 03:10:48;;;;;;;49.55;15.07;;;;;;;-1.33;100.00;101085.34;5210622;28;20048;-72
2023/12/02 03:13:22;;;;;;;43.72;14.25;;;;;;;-1.37;100.00;101075.06;5202905;28;20497;-71
2023/12/02 03:15:53;;;;;;;47.92;15.25;;;;;;;-1.40;100.00;101072.59;5213050;28;20078;-71
2023/12/02 03:18:23;;;;;;;43.28;14.32;;;;;;;-1.46;100.00;101076.41;5206566;28;20021;-71
2023/12/02 03:20:54;;;;;;;54.10;16.02;;;;;;;-1.47;100.00;101072.06;5205644;28;20106;-71
2023/12/02 03:23:25;;;;;;;49.75;16.60;;;;;;;-1.54;100.00;101080.41;5206428;28;20025;-71
2023/12/02 03:25:56;;;;;;;50.05;16.13;;;;;;;-1.58;100.00;101085.81;5209991;28;20044;-71
2023/12/02 03:28:27;;;;;;;49.10;14.60;;;;;;;-1.58;100.00;101088.44;5206544;28;20025;-71
2023/12/02 03:30:59;;;;;;;57.45;16.27;;;;;;;-1.60;100.00;101090.31;5213048;28;20041;-71
2023/12/02 03:33:30;;;;;;;42.75;14.45;;;;;;;-1.58;100.00;101090.22;5212709;28;20021;-71
2023/12/02 03:36:01;;;;;;;45.90;15.75;;;;;;;-1.60;100.00;101090.31;5206962;28;20380;-71
2023/12/02 03:38:31;;;;;;;45.35;15.05;;;;;;;-1.65;100.00;101092.34;5206922;28;20021;-71
2023/12/02 03:41:02;;;;;;;47.00;15.50;;;;;;;-1.65;100.00;101094.97;5204023;28;20545;-71
2023/12/02 03:43:33;;;;;;;51.25;15.85;;;;;;;-1.65;100.00;101089.72;5213523;28;20024;-71
2023/12/02 03:46:04;;;;;;;45.80;14.90;;;;;;;-1.62;100.00;101101.84;5204498;28;20416;-71
2023/12/02 03:48:35;;;;;;;48.58;14.57;;;;;;;-1.60;100.00;101100.00;5200755;28;20029;-71
2023/12/02 03:51:06;;;;;;;45.13;16.25;;;;;;;-1.58;100.00;101104.22;5213722;28;20468;-71
2023/12/02 03:53:36;;;;;;;47.70;16.15;;;;;;;-1.54;100.00;101104.09;5207473;28;20491;-71
2023/12/02 03:56:07;;;;;;;50.10;16.33;;;;;;;-1.52;100.00;101103.06;5211481;28;20025;-70
2023/12/02 03:58:38;;;;;;;50.60;15.85;;;;;;;-1.51;100.00;101096.84;5206120;28;20025;-71
2023/12/02 04:01:08;;;;;;;49.03;16.33;;;;;;;-1.49;100.00;101094.16;5219889;28;20495;-71
2023/12/02 04:03:39;;;;;;;44.60;14.90;;;;;;;-1.47;100.00;101087.88;5220375;28;20025;-71
2023/12/02 04:06:10;;;;;;;45.88;16.13;;;;;;;-1.47;100.00;101101.03;5214942;28;20119;-71
2023/12/02 04:08:41;;;;;;;44.08;15.35;;;;;;;-1.44;100.00;101105.28;5205864;28;20025;-71
2023/12/02 04:11:11;;;;;;;49.08;14.35;;;;;;;-1.43;100.00;101107.81;5210075;28;20025;-71
2023/12/02 04:13:41;;;;;;;50.38;16.65;;;;;;;-1.41;100.00;101111.22;5207168;28;20029;-71
2023/12/02 04:16:12;;;;;;;49.67;16.95;;;;;;;-1.37;100.00;101114.53;5205112;28;20036;-71
2023/12/02 04:18:43;;;;;;;45.90;15.27;;;;;;;-1.36;100.00;101122.34;5206827;28;20083;-71
2023/12/02 04:21:13;;;;;;;48.33;15.38;;;;;;;-1.36;100.00;101114.44;5206376;28;20030;-71
2023/12/02 04:23:44;;;;;;;45.88;16.02;;;;;;;-1.39;100.00;101119.88;5207295;28;20032;-71
2023/12/02 04:26:15;;;;;;;46.33;14.40;;;;;;;-1.41;100.00;101126.16;5211989;28;20036;-71
2023/12/02 04:28:45;;;;;;;43.63;16.38;;;;;;;-1.44;100.00;101119.28;5206076;28;20385;-71
2023/12/02 04:31:16;;;;;;;40.80;14.60;;;;;;;-1.48;100.00;101120.38;5205675;28;20025;-72
2023/12/02 04:33:47;;;;;;;42.83;14.32;;;;;;;-1.50;100.00;101124.88;5210528;28;20030;-71
2023/12/02 04:36:17;;;;;;;44.33;15.50;;;;;;;-1.53;100.00;101121.56;5211605;28;20031;-71
2023/12/02 04:38:48;;;;;;;41.17;14.30;;;;;;;-1.57;100.00;101116.44;5206126;28;20090;-72
2023/12/02 04:41:18;;;;;;;50.38;16.08;;;;;;;-1.61;100.00;101116.69;5209915;28;20461;-72
2023/12/02 04:43:49;;;;;;;45.67;15.98;;;;;;;-1.68;100.00;101126.69;5213974;28;20027;-71
2023/12/02 04:46:19;;;;;;;46.15;15.43;;;;;;;-1.75;100.00;101127.13;5204902;28;20021;-71
2023/12/02 04:48:49;;;;;;;44.92;15.18;;;;;;;-1.82;100.00;101123.94;5205759;28;20036;-71
2023/12/02 04:51:20;;;;;;;45.53;15.50;;;;;;;-1.84;100.00;101121.41;5205820;28;20025;-71
2023/12/02 04:53:50;;;;;;;52.00;15.02;;;;;;;-1.88;100.00;101126.91;5208207;28;20103;-71
2023/12/02 04:56:21;;;;;;;43.55;14.57;;;;;;;-1.90;100.00;101131.41;5206101;28;20032;-71
2023/12/02 04:58:51;;;;;;;39.63;14.10;;;;;;;-1.92;100.00;101136.72;5200852;28;20025;-70
2023/12/02 05:01:22;;;;;;;52.55;16.45;;;;;;;-1.95;100.00;101139.53;5205707;28;20025;-71
2023/12/02 05:03:53;;;;;;;47.97;15.13;;;;;;;-1.95;100.00;101149.19;5212528;28;20021;-71
2023/12/02 05:06:23;;;;;;;48.47;15.32;;;;;;;-1.94;100.00;101148.25;5207872;28;20396;-71
2023/12/02 05:08:54;;;;;;;47.28;15.63;;;;;;;-1.91;100.00;101155.97;5205508;28;20395;-70
2023/12/02 05:11:24;;;;;;;49.53;16.35;;;;;;;-1.86;100.00;101159.22;5210853;28;20036;-71
2023/12/02 05:13:55;;;;;;;57.78;16.67;;;;;;;-1.78;100.00;101166.72;5214412;28;20372;-71
2023/12/02 05:16:25;;;;;;;53.55;16.83;;;;;;;-1.72;100.00;101166.41;5213815;28;20021;-70
2023/12/02 05:18:56;;;;;;;46.72;15.18;;;;;;;-1.67;100.00;101162.59;5205019;28;20036;-70
2023/12/02 05:21:26;;;;;;;52.22;16.55;;;;;;;-1.64;100.00;101164.22;5203283;28;20041;-71
2023/12/02 05:23:57;;;;;;;54.00;17.02;;;;;;;-1.59;100.00;101178.00;5209111;28;20021;-71
2023/12/02 05:26:27;;;;;;;46.83;16.00;;;;;;;-1.54;100.00;101183.88;5208981;28;20388;-71
2023/12/02 05:29:00;;;;;;;51.85;17.33;;;;;;;-1.50;100.00;101184.56;5212033;28;20017;-71
2023/12/02 05:31:31;;;;;;;55.05;16.67;;;;;;;-1.48;100.00;101187.94;5212694;28;20025;-71
2023/12/02 05:34:02;;;;;;;47.83;15.93;;;;;;;-1.46;100.00;101188.72;5215548;28;20098;-71
2023/12/02 05:36:33;;;;;;;47.22;16.73;;;;;;;-1.44;100.00;101182.44;5208810;28;20060;-71
2023/12/02 05:39:03;;;;;;;49.50;15.70;;;;;;;-1.44;100.00;101187.72;5211946;28;20128;-71
2023/12/02 05:41:34;;;;;;;44.28;15.10;;;;;;;-1.41;100.00;101191.94;5202935;28;20025;-71
2023/12/02 05:44:04;;;;;;;50.70;17.35;;;;;;;-1.41;100.00;101192.78;5204641;28;20014;-71
2023/12/02 05:46:36;;;;;;;39.55;14.35;;;;;;;-1.41;100.00;101191.94;5215294;28;20547;-71
2023/12/02 05:49:07;;;;;;;52.00;18.20;;;;;;;-1.38;100.00;101195.28;5206801;28;20029;-71
2023/12/02 05:51:38;;;;;;;53.08;16.40;;;;;;;-1.34;100.00;101198.59;5206775;28;20452;-71
2023/12/02 05:54:09;;;;;;;47.05;16.30;;;;;;;-1.33;100.00;101201.16;5207620;28;20021;-71
2023/12/02 05:56:39;;;;;;;52.42;17.75;;;;;;;-1.32;100.00;101205.47;5210530;28;20382;-70
2023/12/02 05:59:10;;;;;;;42.10;16.60;;;;;;;-1.31;100.00;101204.56;5209433;28;20024;-71
2023/12/02 06:01:41;;;;;;;56.15;17.75;;;;;;;-1.31;100.00;101216.84;5210845;28;20030;-71
2023/12/02 06:04:11;;;;;;;55.65;17.88;;;;;;;-1.31;100.00;101208.94;5209008;28;20044;-71
2023/12/02 06:06:46;;;;;;;50.28;17.00;;;;;;;-1.29;100.00;101198.38;5222175;28;20024;-71
2023/12/02 06:09:17;;;;;;;49.22;17.42;;;;;;;-1.29;100.00;101211.53;5198640;28;20050;-71
2023/12/02 06:11:47;;;;;;;49.35;15.52;;;;;;;-1.29;100.00;101209.75;5210425;28;20088;-71
2023/12/02 06:14:19;;;;;;;55.47;17.42;;;;;;;-1.25;100.00;101213.06;5214387;28;20098;-71
2023/12/02 06:16:50;;;;;;;55.33;17.58;;;;;;;-1.25;100.00;101208.66;5215667;28;20414;-71
2023/12/02 06:19:20;;;;;;;59.88;17.95;;;;;;;-1.27;100.00;101212.28;5208964;28;20025;-71
2023/12/02 06:21:51;;;;;;;49.33;17.17;;;;;;;-1.26;100.00;101221.88;5204622;28;20025;-71
2023/12/02 06:24:22;;;;;;;50.03;15.00;;;;;;;-1.23;100.00;101227.00;5204286;28;20022;-71
2023/12/02 06:26:52;;;;;;;46.67;16.48;;;;;;;-1.22;100.00;101226.91;5205985;28;20391;-71
2023/12/02 06:29:23;;;;;;;129.25;40.90;;;;;;;-1.23;100.00;101232.25;5207524;28;20514;-71
2023/12/02 06:31:53;;;;;;;136.90;40.85;;;;;;;-1.25;100.00;101236.75;5206980;28;20033;-71
2023/12/02 06:34:24;;;;;;;59.03;18.73;;;;;;;-1.28;100.00;101224.59;5211001;28;20025;-70
2023/12/02 06:36:54;;;;;;;53.72;16.50;;;;;;;-1.36;100.00;101221.50;5204057;28;20695;-71
2023/12/02 06:39:25;;;;;;;51.45;17.48;;;;;;;-1.34;100.00;101224.94;5205376;28;20036;-70
2023/12/02 06:41:55;;;;;;;53.80;16.70;;;;;;;-1.33;100.00;101224.84;5216692;28;20040;-71
2023/12/02 06:44:26;;;;;;;50.70;18.13;;;;;;;-1.35;100.00;101223.22;5207702;28;20024;-71
2023/12/02 06:46:56;;;;;;;53.67;18.10;;;;;;;-1.33;100.00;101231.88;5204736;28;20555;-71
2023/12/02 06:49:27;;;;;;;55.97;17.90;;;;;;;-1.33;100.00;101235.38;5202625;28;20032;-71
2023/12/02 06:51:57;;;;;;;52.58;18.15;;;;;;;-1.33;100.00;101242.41;5210515;28;20467;-71
2023/12/02 06:54:28;;;;;;;55.92;17.50;;;;;;;-1.37;100.00;101243.50;5211277;28;20026;-71
2023/12/02 06:56:58;;;;;;;55.55;18.33;;;;;;;-1.39;100.00;101238.31;5214561;28;20103;-71
2023/12/02 06:59:29;;;;;;;54.85;18.05;;;;;;;-1.40;100.00;101246.31;5213637;28;20102;-71
2023/12/02 07:02:00;;;;;;;49.47;16.67;;;;;;;-1.39;100.00;101255.91;5209583;28;20536;-71
2023/12/02 07:04:30;;;;;;;58.20;17.58;;;;;;;-1.38;100.00;101258.44;5212882;28;20021;-71
2023/12/02 07:07:01;;;;;;;58.45;18.13;;;;;;;-1.40;100.00;101256.84;5210774;28;20032;-71
2023/12/02 07:09:31;;;;;;;61.75;19.38;;;;;;;-1.47;100.00;101256.28;5212063;28;20517;-71
2023/12/02 07:12:02;;;;;;;61.28;20.25;;;;;;;-1.50;100.00;101267.00;5208038;28;20033;-71
2023/12/02 07:14:32;;;;;;;63.92;20.30;;;;;;;-1.50;100.00;101261.72;5213509;28;20025;-70
2023/12/02 07:17:04;;;;;;;54.20;16.80;;;;;;;-1.58;100.00;101271.78;5209149;28;20032;-70
2023/12/02 07:19:35;;;;;;;58.45;18.60;;;;;;;-1.62;100.00;101278.97;5208709;28;20468;-70
2023/12/02 07:22:05;;;;;;;59.28;17.95;;;;;;;-1.62;100.00;101278.13;5208326;28;20074;-71
2023/12/02 07:24:36;;;;;;;54.80;18.30;;;;;;;-1.65;100.00;101280.94;5204588;28;20397;-70
2023/12/02 07:27:07;;;;;;;54.97;17.48;;;;;;;-1.66;100.00;101285.31;5209091;28;20037;-70
2023/12/02 07:29:38;;;;;;;62.70;17.48;;;;;;;-1.68;100.00;101284.53;5205948;28;20557;-71
2023/12/02 07:32:09;;;;;;;57.92;18.05;;;;;;;-1.71;100.00;101284.69;5219509;28;20484;-70
2023/12/02 07:34:39;;;;;;;55.40;17.95;;;;;;;-1.76;100.00;101291.13;5209113;28;20028;-70
2023/12/02 07:37:10;;;;;;;56.65;18.55;;;;;;;-1.79;100.00;101292.13;5203556;28;20097;-70
2023/12/02 07:39:40;;;;;;;59.15;18.35;;;;;;;-1.79;100.00;101286.88;5220800;28;20029;-71
2023/12/02 07:42:11;;;;;;;64.93;17.80;;;;;;;-1.78;100.00;101292.97;5214104;28;20021;-70
2023/12/02 07:44:41;;;;;;;56.63;18.08;;;;;;;-1.87;100.00;101289.88;5210511;28;20021;-70
2023/12/02 07:47:12;;;;;;;61.75;17.80;;;;;;;-1.91;100.00;101292.72;5211025;28;20047;-70
2023/12/02 07:49:43;;;;;;;59.20;19.83;;;;;;;-1.92;100.00;101299.75;5206401;28;20038;-70
2023/12/02 07:52:13;;;;;;;58.85;17.75;;;;;;;-1.95;100.00;101323.59;5212188;28;20037;-70
2023/12/02 07:54:44;;;;;;;65.55;20.52;;;;;;;-1.94;100.00;101321.81;5207882;28;20033;-70
2023/12/02 07:57:15;;;;;;;61.40;19.23;;;;;;;-1.96;100.00;101316.66;5203621;28;20021;-70
2023/12/02 07:59:45;;;;;;;55.13;18.75;;;;;;;-1.98;100.00;101326.38;5215440;28;20369;-71
2023/12/02 08:02:15;;;;;;;57.20;20.05;;;;;;;-1.98;100.00;101336.03;5209916;28;20030;-70
2023/12/02 08:04:47;;;;;;;61.85;19.67;;;;;;;-1.95;100.00;101334.13;5214541;28;20026;-70
2023/12/02 08:07:18;;;;;;;57.80;18.95;;;;;;;-1.85;100.00;101338.00;5204583;28;20038;-70
2023/12/02 08:09:49;;;;;;;66.55;20.42;;;;;;;-1.75;100.00;101341.03;5209631;28;20061;-70
2023/12/02 08:12:19;;;;;;;72.07;21.65;;;;;;;-1.61;100.00;101332.44;5204682;28;20029;-70
2023/12/02 08:14:50;;;;;;;67.90;21.73;;;;;;;-1.53;100.00;101339.97;5208185;28;20051;-70
2023/12/02 08:17:21;;;;;;;59.72;19.92;;;;;;;-1.52;100.00;101347.78;5210046;28;20027;-70
2023/12/02 08:19:51;;;;;;;63.33;19.67;;;;;;;-1.42;100.00;101348.16;5219617;28;20025;-70
2023/12/02 08:22:24;;;;;;;65.30;20.00;;;;;;;-1.33;100.00;101345.91;5216191;28;20036;-70
2023/12/02 08:24:55;;;;;;;120.88;37.35;;;;;;;-1.25;100.00;101349.97;5208389;28;20043;-71
2023/12/02 08:27:25;;;;;;;443.00;235.32;;;;;;;-1.14;100.00;101347.63;5212186;28;20033;-71
2023/12/02 08:29:56;;;;;;;77.82;28.13;;;;;;;-1.06;100.00;101337.53;5211784;28;20029;-70
2023/12/02 08:32:26;;;;;;;66.72;22.77;;;;;;;-1.06;100.00;101363.84;5211086;28;20029;-70
2023/12/02 08:34:57;;;;;;;60.03;19.77;;;;;;;-1.00;100.00;101371.47;5210692;28;20276;-70
2023/12/02 08:37:27;;;;;;;56.45;19.17;;;;;;;-0.83;100.00;101360.88;5217078;28;20486;-70
2023/12/02 08:40:01;;;;;;;56.05;18.73;;;;;;;-0.68;100.00;101371.56;5211685;28;20036;-70
2023/12/02 08:42:32;;;;;;;48.30;17.23;;;;;;;-0.64;100.00;101363.41;5211111;28;20025;-70
2023/12/02 08:45:03;;;;;;;51.67;18.60;;;;;;;-0.64;100.00;101368.69;5210071;28;20025;-71
2023/12/02 08:47:33;;;;;;;48.35;17.45;;;;;;;-0.50;100.00;101375.84;5210399;28;20029;-70
2023/12/02 08:50:05;;;;;;;50.13;18.38;;;;;;;-0.52;100.00;101377.69;5213255;28;20017;-70
2023/12/02 08:52:35;;;;;;;60.58;19.73;;;;;;;-0.47;100.00;101386.22;5209072;28;20431;-71
2023/12/02 08:55:06;;;;;;;47.97;17.27;;;;;;;-0.43;100.00;101382.50;5206999;28;20025;-71
2023/12/02 08:57:36;;;;;;;48.63;17.95;;;;;;;-0.45;100.00;101381.72;5208103;28;20025;-71
2023/12/02 09:00:08;;;;;;;53.05;18.83;;;;;;;-0.41;100.00;101392.94;5213110;28;20434;-71
2023/12/02 09:02:38;;;;;;;57.67;18.38;;;;;;;-0.36;100.00;101386.47;5208157;28;20053;-71
2023/12/02 09:05:09;;;;;;;73.22;32.25;;;;;;;-0.28;100.00;101394.84;5213833;28;20517;-71
2023/12/02 09:07:39;;;;;;;346.40;194.77;;;;;;;-0.16;100.00;101393.31;5212307;28;20029;-71
2023/12/02 09:10:10;;;;;;;51.00;21.05;;;;;;;-0.15;100.00;101386.25;5204216;28;20017;-71
2023/12/02 09:12:41;;;;;;;52.25;19.25;;;;;;;-0.22;100.00;101383.09;5227530;28;20025;-71
2023/12/02 09:15:14;;;;;;;51.88;17.70;;;;;;;-0.30;100.00;101387.97;5213035;28;20116;-71
2023/12/02 09:18:08;;;;;;;49.05;17.80;;;;;;;-0.38;100.00;101385.72;5218365;28;20485;-71
2023/12/02 09:20:40;;;;;;;43.88;17.63;;;;;;;-0.33;100.00;101390.75;5205275;28;20029;-71
2023/12/02 09:23:11;;;;;;;46.40;16.63;;;;;;;-0.28;100.00;101394.00;5207665;28;20021;-71
2023/12/02 09:25:43;;;;;;;45.25;17.00;;;;;;;-0.30;100.00;101388.81;5212625;28;20155;-70
2023/12/02 09:28:16;;;;;;;45.08;16.45;;;;;;;-0.24;100.00;101387.63;5213689;28;20488;-71
2023/12/02 09:30:55;;;;;;;49.22;16.58;;;;;;;0.06;100.00;101385.06;5209511;28;20480;-72
2023/12/02 09:33:27;;;;;;;52.38;17.40;;;;;;;0.30;100.00;101398.66;5204656;28;20021;-71
2023/12/02 09:36:01;;;;;;;51.90;18.75;;;;;;;0.57;100.00;101401.53;5210181;28;20017;-72
2023/12/02 09:38:32;;;;;;;47.85;17.20;;;;;;;0.74;100.00;101393.47;5208803;28;20025;-71
2023/12/02 09:41:16;;;;;;;49.00;18.33;;;;;;;0.71;100.00;101400.72;5210722;28;20520;-72
2023/12/02 09:44:05;;;;;;;174.63;71.90;;;;;;;0.78;100.00;101407.34;5212784;28;20067;-71
2023/12/02 09:46:51;;;;;;;46.13;17.50;;;;;;;0.85;100.00;101405.19;5205065;28;20021;-71
2023/12/02 09:49:31;;;;;;;;;;;;;;;0.76;100.00;101399.53;5213689;28;20045;-72
2023/12/02 09:52:08;;;;;;;44.13;17.77;;;;;;;0.78;100.00;101408.19;5203712;28;19909;-72
2023/12/02 09:55:04;;;;;;;48.60;17.42;;;;;;;0.91;100.00;101410.97;5205218;28;20099;-72
2023/12/02 09:57:54;;;;;;;48.22;18.23;;;;;;;1.06;100.00;101411.88;5204446;28;20508;-71
2023/12/02 10:00:37;;;;;;;49.20;17.02;;;;;;;0.92;100.00;101406.53;5210699;28;20057;-72
2023/12/02 10:03:22;;;;;;;54.85;18.70;;;;;;;1.06;100.00;101408.38;5202354;28;20013;-72
2023/12/02 10:05:59;;;;;;;;;;;;;;;1.15;100.00;101419.22;5214264;28;20507;-72
2023/12/02 10:09:08;;;;;;;54.92;18.27;;;;;;;0.96;100.00;101414.19;5204880;28;19909;-72
2023/12/02 10:11:53;;;;;;;46.95;17.13;;;;;;;1.11;100.00;101412.44;5204432;28;20056;-72
2023/12/02 10:14:25;;;;;;;48.58;16.35;;;;;;;1.33;100.00;101416.44;5208062;28;20105;-72
2023/12/02 10:16:56;;;;;;;44.30;17.52;;;;;;;1.38;100.00;101424.94;5210911;28;20078;-72
2023/12/02 10:19:36;;;;;;;45.17;16.60;;;;;;;1.26;100.00;101422.09;5202613;28;20030;-72
2023/12/02 10:22:10;;;;;;;48.50;18.45;;;;;;;1.27;100.00;101429.06;5204133;28;20120;-72
2023/12/02 10:24:52;;;;;;;46.88;17.20;;;;;;;1.38;100.00;101436.34;5206891;28;20029;-72
2023/12/02 10:27:25;;;;;;;44.80;16.98;;;;;;;1.48;100.00;101436.66;5207873;28;20021;-72
2023/12/02 10:30:12;;;;;;;47.22;17.23;;;;;;;1.51;100.00;101433.81;5207590;28;20071;-72
2023/12/02 10:32:47;;;;;;;49.42;17.50;;;;;;;1.59;100.00;101441.28;5202179;28;20029;-72
2023/12/02 10:35:20;;;;;;;48.30;17.27;;;;;;;1.68;100.00;101432.78;5207132;28;20488;-71
2023/12/02 10:37:57;;;;;;;42.65;17.17;;;;;;;1.60;100.00;101435.03;5191998;28;20100;-72
2023/12/02 10:40:30;;;;;;;46.95;17.50;;;;;;;1.60;100.00;101432.38;5202985;28;20025;-71
2023/12/02 10:43:10;;;;;;;49.90;18.52;;;;;;;1.62;100.00;101438.47;5203432;28;20729;-71
2023/12/02 10:45:42;;;;;;;50.58;18.17;;;;;;;1.57;100.00;101436.09;5211379;28;20419;-72
2023/12/02 10:48:14;;;;;;;37.88;17.17;;;;;;;1.59;100.00;101439.47;5207231;28;20022;-72
2023/12/02 10:50:46;;;;;;;52.35;20.98;;;;;;;1.61;100.00;101439.38;5205292;28;20076;-71
2023/12/02 10:53:20;;;;;;;67.75;32.33;;;;;;;1.67;100.00;101436.38;5214700;28;20057;-71
2023/12/02 10:55:57;;;;;;;47.58;17.70;;;;;;;1.95;100.00;101441.63;5212814;28;20545;-72
2023/12/02 10:58:30;;;;;;;51.42;19.40;;;;;;;2.12;100.00;101434.44;5209756;28;20021;-72
2023/12/02 11:01:08;;;;;;;46.55;17.23;;;;;;;2.28;100.00;101446.59;5208029;28;20021;-72
2023/12/02 11:03:46;;;;;;;42.40;16.30;;;;;;;2.29;100.00;101439.50;5205332;28;21737;-71
2023/12/02 11:06:28;;;;;;;47.92;17.33;;;;;;;2.24;100.00;101449.53;5207696;28;20199;-72
2023/12/02 11:09:12;;;;;;;45.13;16.52;;;;;;;2.14;100.00;101441.31;5211410;28;20155;-72
2023/12/02 11:11:56;;;;;;;44.30;16.92;;;;;;;1.96;100.00;101438.06;5200473;28;20025;-71
2023/12/02 11:14:32;;;;;;;42.95;16.70;;;;;;;1.85;100.00;101432.56;5211628;28;20013;-72
2023/12/02 11:17:07;;;;;;;42.05;16.70;;;;;;;1.83;100.00;101436.28;5203390;28;20476;-71
2023/12/02 11:19:56;;;;;;;42.13;17.00;;;;;;;1.77;100.00;101438.34;5215978;28;20025;-72
2023/12/02 11:22:51;;;;;;;41.88;17.90;;;;;;;1.70;100.00;101431.72;5206692;28;20471;-72
2023/12/02 11:25:47;;;;;;;45.45;17.15;;;;;;;1.76;100.00;101428.72;5203138;28;20029;-72